sensor_id;sensor_type;location;lat;lon;timestamp;pressure;altitude;pressure_sealevel;temperature;humidity
38289;BME280;24092;53.370;-6.588;2022-08-05T00:02:20;101654.75;;;9.27;100.00
38289;BME280;24092;53.370;-6.588;2022-08-05T00:04:48;101660.64;;;8.32;100.00
38289;BME280;24092;53.370;-6.588;2022-08-05T00:07:15;101656.34;;;8.77;100.00
38289;BME280;24092;53.370;-6.588;2022-08-05T00:09:42;101659.29;;;8.62;100.00
38289;BME280;24092;53.370;-6.588;2022-08-05T00:12:09;101656.14;;;8.51;100.00
38289;BME280;24092;53.370;-6.588;2022-08-05T00:14:36;101654.62;;;8.12;100.00
38289;BME280;24092;53.370;-6.588;2022-08-05T00:17:03;101651.91;;;8.19;100.00
38289;BME280;24092;53.370;-6.588;2022-08-05T00:19:30;101650.64;;;8.18;100.00
38289;BME280;24092;53.370;-6.588;2022-08-05T00:21:57;101656.82;;;8.36;100.00
38289;BME280;24092;53.370;-6.588;2022-08-05T00:24:24;101653.40;;;8.27;100.00
38289;BME280;24092;53.370;-6.588;2022-08-05T00:26:51;101650.62;;;8.30;100.00
38289;BME280;24092;53.370;-6.588;2022-08-05T00:29:19;101653.42;;;8.01;100.00
38289;BME280;24092;53.370;-6.588;2022-08-05T00:31:47;101652.64;;;8.12;100.00
38289;BME280;24092;53.370;-6.588;2022-08-05T00:34:13;101650.88;;;8.28;100.00
38289;BME280;24092;53.370;-6.588;2022-08-05T00:36:40;101652.75;;;8.82;100.00
38289;BME280;24092;53.370;-6.588;2022-08-05T00:39:07;101651.67;;;8.14;100.00
38289;BME280;24092;53.370;-6.588;2022-08-05T00:41:34;101651.58;;;8.22;100.00
38289;BME280;24092;53.370;-6.588;2022-08-05T00:44:02;101648.63;;;7.53;100.00
38289;BME280;24092;53.370;-6.588;2022-08-05T00:46:29;101657.32;;;8.20;100.00
38289;BME280;24092;53.370;-6.588;2022-08-05T00:48:56;101656.19;;;8.22;100.00
38289;BME280;24092;53.370;-6.588;2022-08-05T00:51:23;101653.47;;;8.34;100.00
38289;BME280;24092;53.370;-6.588;2022-08-05T00:53:50;101651.22;;;7.87;100.00
38289;BME280;24092;53.370;-6.588;2022-08-05T00:56:17;101648.32;;;7.74;100.00
38289;BME280;24092;53.370;-6.588;2022-08-05T00:58:44;101650.71;;;7.80;100.00
38289;BME280;24092;53.370;-6.588;2022-08-05T01:01:13;101651.96;;;7.01;100.00
38289;BME280;24092;53.370;-6.588;2022-08-05T01:03:41;101650.66;;;7.13;100.00
38289;BME280;24092;53.370;-6.588;2022-08-05T01:06:09;101653.52;;;7.27;100.00
38289;BME280;24092;53.370;-6.588;2022-08-05T01:08:36;101652.00;;;7.58;100.00
38289;BME280;24092;53.370;-6.588;2022-08-05T01:11:08;101651.56;;;7.43;100.00
38289;BME280;24092;53.370;-6.588;2022-08-05T01:13:43;101653.25;;;7.18;100.00
38289;BME280;24092;53.370;-6.588;2022-08-05T01:16:17;101647.89;;;6.66;100.00
38289;BME280;24092;53.370;-6.588;2022-08-05T01:18:51;101653.46;;;7.62;100.00
38289;BME280;24092;53.370;-6.588;2022-08-05T01:21:35;101652.14;;;7.38;100.00
38289;BME280;24092;53.370;-6.588;2022-08-05T01:24:18;101651.32;;;7.33;100.00
38289;BME280;24092;53.370;-6.588;2022-08-05T01:26:59;101654.60;;;6.81;100.00
38289;BME280;24092;53.370;-6.588;2022-08-05T01:29:32;101655.37;;;7.42;100.00
38289;BME280;24092;53.370;-6.588;2022-08-05T01:32:12;101656.36;;;7.22;100.00
38289;BME280;24092;53.370;-6.588;2022-08-05T01:34:49;101658.06;;;6.32;100.00
38289;BME280;24092;53.370;-6.588;2022-08-05T01:37:28;101657.40;;;6.60;100.00
38289;BME280;24092;53.370;-6.588;2022-08-05T01:40:10;101658.66;;;8.01;100.00
38289;BME280;24092;53.370;-6.588;2022-08-05T01:42:46;101657.91;;;6.79;100.00
38289;BME280;24092;53.370;-6.588;2022-08-05T01:45:15;101662.59;;;6.45;100.00
38289;BME280;24092;53.370;-6.588;2022-08-05T01:47:44;101663.72;;;6.62;100.00
38289;BME280;24092;53.370;-6.588;2022-08-05T01:50:15;101666.08;;;6.45;100.00
38289;BME280;24092;53.370;-6.588;2022-08-05T01:52:46;101665.33;;;6.17;100.00
38289;BME280;24092;53.370;-6.588;2022-08-05T01:55:16;101663.64;;;6.20;100.00
38289;BME280;24092;53.370;-6.588;2022-08-05T01:57:46;101661.84;;;5.97;100.00
38289;BME280;24092;53.370;-6.588;2022-08-05T02:00:14;101664.47;;;6.24;100.00
38289;BME280;24092;53.370;-6.588;2022-08-05T02:02:46;101661.98;;;5.85;100.00
38289;BME280;24092;53.370;-6.588;2022-08-05T02:05:14;101660.55;;;5.86;100.00
38289;BME280;24092;53.370;-6.588;2022-08-05T02:07:44;101661.46;;;5.79;100.00
38289;BME280;24092;53.370;-6.588;2022-08-05T02:10:11;101665.27;;;6.37;100.00
38289;BME280;24092;53.370;-6.588;2022-08-05T02:12:43;101666.21;;;6.45;100.00
38289;BME280;24092;53.370;-6.588;2022-08-05T02:15:16;101667.56;;;6.51;100.00
38289;BME280;24092;53.370;-6.588;2022-08-05T02:17:50;101666.09;;;6.66;100.00
38289;BME280;24092;53.370;-6.588;2022-08-05T02:20:21;101669.44;;;6.36;100.00
38289;BME280;24092;53.370;-6.588;2022-08-05T02:22:55;101665.17;;;6.60;100.00
38289;BME280;24092;53.370;-6.588;2022-08-05T02:25:29;101664.60;;;6.74;100.00
38289;BME280;24092;53.370;-6.588;2022-08-05T02:27:58;101666.89;;;6.60;100.00
38289;BME280;24092;53.370;-6.588;2022-08-05T02:30:29;101666.08;;;6.93;100.00
38289;BME280;24092;53.370;-6.588;2022-08-05T02:32:59;101666.96;;;6.52;100.00
38289;BME280;24092;53.370;-6.588;2022-08-05T02:35:30;101667.68;;;6.42;100.00
38289;BME280;24092;53.370;-6.588;2022-08-05T02:37:59;101671.17;;;6.73;100.00
38289;BME280;24092;53.370;-6.588;2022-08-05T02:40:28;101673.31;;;6.13;100.00
38289;BME280;24092;53.370;-6.588;2022-08-05T02:42:57;101676.91;;;6.11;100.00
38289;BME280;24092;53.370;-6.588;2022-08-05T02:45:27;101675.61;;;6.20;100.00
38289;BME280;24092;53.370;-6.588;2022-08-05T02:47:55;101674.77;;;6.39;100.00
38289;BME280;24092;53.370;-6.588;2022-08-05T02:50:24;101673.92;;;6.41;100.00
38289;BME280;24092;53.370;-6.588;2022-08-05T02:52:53;101672.65;;;6.08;100.00
38289;BME280;24092;53.370;-6.588;2022-08-05T02:55:21;101671.06;;;6.15;100.00
38289;BME280;24092;53.370;-6.588;2022-08-05T02:57:49;101671.39;;;5.87;100.00
38289;BME280;24092;53.370;-6.588;2022-08-05T03:00:16;101672.66;;;6.31;100.00
38289;BME280;24092;53.370;-6.588;2022-08-05T03:02:45;101671.88;;;6.12;100.00
38289;BME280;24092;53.370;-6.588;2022-08-05T03:05:14;101668.79;;;5.95;100.00
38289;BME280;24092;53.370;-6.588;2022-08-05T03:07:42;101670.50;;;6.27;100.00
38289;BME280;24092;53.370;-6.588;2022-08-05T03:10:09;101671.28;;;6.18;100.00
38289;BME280;24092;53.370;-6.588;2022-08-05T03:12:38;101671.91;;;6.00;100.00
38289;BME280;24092;53.370;-6.588;2022-08-05T03:15:08;101672.78;;;5.97;100.00
38289;BME280;24092;53.370;-6.588;2022-08-05T03:17:36;101674.18;;;5.90;100.00
38289;BME280;24092;53.370;-6.588;2022-08-05T03:20:05;101676.11;;;5.75;100.00
38289;BME280;24092;53.370;-6.588;2022-08-05T03:22:32;101672.97;;;5.85;100.00
38289;BME280;24092;53.370;-6.588;2022-08-05T03:25:00;101672.50;;;6.21;100.00
38289;BME280;24092;53.370;-6.588;2022-08-05T03:27:28;101673.28;;;6.15;100.00
38289;BME280;24092;53.370;-6.588;2022-08-05T03:29:54;101674.31;;;6.03;100.00
38289;BME280;24092;53.370;-6.588;2022-08-05T03:32:21;101673.59;;;5.57;100.00
38289;BME280;24092;53.370;-6.588;2022-08-05T03:34:50;101674.40;;;5.61;100.00
38289;BME280;24092;53.370;-6.588;2022-08-05T03:37:19;101674.81;;;5.25;100.00
38289;BME280;24092;53.370;-6.588;2022-08-05T03:40:01;101677.86;;;5.55;100.00
38289;BME280;24092;53.370;-6.588;2022-08-05T03:42:29;101678.16;;;5.39;100.00
38289;BME280;24092;53.370;-6.588;2022-08-05T03:44:56;101673.92;;;5.31;100.00
38289;BME280;24092;53.370;-6.588;2022-08-05T03:47:23;101673.81;;;5.06;100.00
38289;BME280;24092;53.370;-6.588;2022-08-05T03:49:50;101674.53;;;4.80;100.00
38289;BME280;24092;53.370;-6.588;2022-08-05T03:52:21;101670.56;;;4.91;100.00
38289;BME280;24092;53.370;-6.588;2022-08-05T03:54:51;101674.75;;;5.25;100.00
38289;BME280;24092;53.370;-6.588;2022-08-05T03:57:22;101671.90;;;5.67;100.00
38289;BME280;24092;53.370;-6.588;2022-08-05T03:59:54;101670.38;;;5.60;100.00
38289;BME280;24092;53.370;-6.588;2022-08-05T04:02:25;101668.51;;;5.47;100.00
38289;BME280;24092;53.370;-6.588;2022-08-05T04:04:55;101669.53;;;5.36;100.00
38289;BME280;24092;53.370;-6.588;2022-08-05T04:07:23;101670.77;;;5.37;100.00
38289;BME280;24092;53.370;-6.588;2022-08-05T04:09:51;101668.28;;;5.09;100.00
38289;BME280;24092;53.370;-6.588;2022-08-05T04:12:19;101668.47;;;5.56;100.00
38289;BME280;24092;53.370;-6.588;2022-08-05T04:14:46;101667.85;;;5.96;100.00
38289;BME280;24092;53.370;-6.588;2022-08-05T04:17:14;101662.95;;;6.02;100.00
38289;BME280;24092;53.370;-6.588;2022-08-05T04:19:41;101663.84;;;6.14;100.00
38289;BME280;24092;53.370;-6.588;2022-08-05T04:22:10;101666.00;;;5.84;100.00
38289;BME280;24092;53.370;-6.588;2022-08-05T04:24:38;101667.20;;;5.78;100.00
38289;BME280;24092;53.370;-6.588;2022-08-05T04:27:05;101669.03;;;5.04;100.00
38289;BME280;24092;53.370;-6.588;2022-08-05T04:29:32;101668.92;;;4.95;100.00
38289;BME280;24092;53.370;-6.588;2022-08-05T04:31:59;101669.36;;;5.53;100.00
38289;BME280;24092;53.370;-6.588;2022-08-05T04:34:26;101674.70;;;5.14;100.00
38289;BME280;24092;53.370;-6.588;2022-08-05T04:36:53;101676.21;;;5.00;100.00
38289;BME280;24092;53.370;-6.588;2022-08-05T04:39:20;101679.42;;;5.20;100.00
38289;BME280;24092;53.370;-6.588;2022-08-05T04:41:48;101677.71;;;5.21;100.00
38289;BME280;24092;53.370;-6.588;2022-08-05T04:44:15;101679.11;;;5.13;100.00
38289;BME280;24092;53.370;-6.588;2022-08-05T04:46:42;101676.29;;;4.86;100.00
38289;BME280;24092;53.370;-6.588;2022-08-05T04:49:09;101681.32;;;4.88;100.00
38289;BME280;24092;53.370;-6.588;2022-08-05T04:51:36;101682.63;;;5.11;100.00
38289;BME280;24092;53.370;-6.588;2022-08-05T04:54:04;101679.14;;;4.78;100.00
38289;BME280;24092;53.370;-6.588;2022-08-05T04:56:31;101678.45;;;4.73;100.00
38289;BME280;24092;53.370;-6.588;2022-08-05T04:58:58;101682.76;;;5.40;100.00
38289;BME280;24092;53.370;-6.588;2022-08-05T05:01:25;101686.75;;;5.51;100.00
38289;BME280;24092;53.370;-6.588;2022-08-05T05:03:52;101685.71;;;5.40;100.00
38289;BME280;24092;53.370;-6.588;2022-08-05T05:06:19;101687.37;;;5.44;100.00
38289;BME280;24092;53.370;-6.588;2022-08-05T05:08:46;101687.44;;;4.74;100.00
38289;BME280;24092;53.370;-6.588;2022-08-05T05:11:13;101692.91;;;4.88;100.00
38289;BME280;24092;53.370;-6.588;2022-08-05T05:13:40;101696.85;;;5.22;100.00
38289;BME280;24092;53.370;-6.588;2022-08-05T05:16:07;101696.96;;;5.15;100.00
38289;BME280;24092;53.370;-6.588;2022-08-05T05:18:35;101695.93;;;4.87;100.00
38289;BME280;24092;53.370;-6.588;2022-08-05T05:21:02;101704.34;;;4.69;100.00
38289;BME280;24092;53.370;-6.588;2022-08-05T05:23:29;101700.57;;;4.72;100.00
38289;BME280;24092;53.370;-6.588;2022-08-05T05:25:56;101701.16;;;4.55;100.00
38289;BME280;24092;53.370;-6.588;2022-08-05T05:28:23;101700.05;;;4.36;100.00
38289;BME280;24092;53.370;-6.588;2022-08-05T05:30:51;101701.26;;;4.01;100.00
38289;BME280;24092;53.370;-6.588;2022-08-05T05:33:18;101702.99;;;4.38;100.00
38289;BME280;24092;53.370;-6.588;2022-08-05T05:35:46;101705.95;;;4.36;100.00
38289;BME280;24092;53.370;-6.588;2022-08-05T05:38:14;101709.67;;;4.51;100.00
38289;BME280;24092;53.370;-6.588;2022-08-05T05:40:42;101711.52;;;4.61;100.00
38289;BME280;24092;53.370;-6.588;2022-08-05T05:43:10;101712.87;;;4.70;100.00
38289;BME280;24092;53.370;-6.588;2022-08-05T05:45:37;101716.84;;;4.77;100.00
38289;BME280;24092;53.370;-6.588;2022-08-05T05:48:05;101709.11;;;5.10;100.00
38289;BME280;24092;53.370;-6.588;2022-08-05T05:50:33;101712.74;;;4.83;100.00
38289;BME280;24092;53.370;-6.588;2022-08-05T05:53:01;101714.86;;;5.15;100.00
38289;BME280;24092;53.370;-6.588;2022-08-05T05:55:28;101716.92;;;5.60;100.00
38289;BME280;24092;53.370;-6.588;2022-08-05T05:57:55;101715.91;;;5.25;100.00
38289;BME280;24092;53.370;-6.588;2022-08-05T06:00:22;101719.45;;;5.34;100.00
38289;BME280;24092;53.370;-6.588;2022-08-05T06:02:49;101723.32;;;5.70;100.00
38289;BME280;24092;53.370;-6.588;2022-08-05T06:05:16;101728.32;;;5.74;100.00
38289;BME280;24092;53.370;-6.588;2022-08-05T06:07:44;101734.90;;;6.08;100.00
38289;BME280;24092;53.370;-6.588;2022-08-05T06:10:12;101738.13;;;6.43;100.00
38289;BME280;24092;53.370;-6.588;2022-08-05T06:12:39;101739.25;;;6.59;100.00
38289;BME280;24092;53.370;-6.588;2022-08-05T06:15:07;101740.13;;;6.61;100.00
38289;BME280;24092;53.370;-6.588;2022-08-05T06:17:35;101734.78;;;5.84;100.00
38289;BME280;24092;53.370;-6.588;2022-08-05T06:20:03;101737.90;;;6.62;100.00
38289;BME280;24092;53.370;-6.588;2022-08-05T06:22:32;101734.55;;;6.47;100.00
38289;BME280;24092;53.370;-6.588;2022-08-05T06:24:59;101737.36;;;6.78;100.00
38289;BME280;24092;53.370;-6.588;2022-08-05T06:27:27;101742.52;;;7.08;100.00
38289;BME280;24092;53.370;-6.588;2022-08-05T06:29:54;101743.21;;;7.43;100.00
38289;BME280;24092;53.370;-6.588;2022-08-05T06:32:21;101738.70;;;7.39;100.00
38289;BME280;24092;53.370;-6.588;2022-08-05T06:34:48;101739.03;;;7.70;100.00
38289;BME280;24092;53.370;-6.588;2022-08-05T06:37:15;101747.75;;;7.56;100.00
38289;BME280;24092;53.370;-6.588;2022-08-05T06:39:42;101742.59;;;6.99;100.00
38289;BME280;24092;53.370;-6.588;2022-08-05T06:42:09;101752.67;;;7.45;100.00
38289;BME280;24092;53.370;-6.588;2022-08-05T06:44:36;101763.70;;;8.64;100.00
38289;BME280;24092;53.370;-6.588;2022-08-05T06:47:03;101765.40;;;9.87;100.00
38289;BME280;24092;53.370;-6.588;2022-08-05T06:49:30;101763.58;;;9.56;100.00
38289;BME280;24092;53.370;-6.588;2022-08-05T06:51:57;101770.02;;;10.13;100.00
38289;BME280;24092;53.370;-6.588;2022-08-05T06:54:25;101773.28;;;10.09;100.00
38289;BME280;24092;53.370;-6.588;2022-08-05T06:56:53;101771.61;;;9.86;100.00
38289;BME280;24092;53.370;-6.588;2022-08-05T06:59:21;101773.14;;;9.87;100.00
38289;BME280;24092;53.370;-6.588;2022-08-05T07:01:48;101771.35;;;9.34;100.00
38289;BME280;24092;53.370;-6.588;2022-08-05T07:04:16;101770.37;;;9.67;100.00
38289;BME280;24092;53.370;-6.588;2022-08-05T07:06:44;101770.07;;;8.91;100.00
38289;BME280;24092;53.370;-6.588;2022-08-05T07:09:11;101768.85;;;8.40;100.00
38289;BME280;24092;53.370;-6.588;2022-08-05T07:11:38;101778.11;;;8.51;100.00
38289;BME280;24092;53.370;-6.588;2022-08-05T07:14:05;101770.35;;;9.31;100.00
38289;BME280;24092;53.370;-6.588;2022-08-05T07:16:33;101773.77;;;8.87;100.00
38289;BME280;24092;53.370;-6.588;2022-08-05T07:19:00;101773.84;;;9.23;100.00
38289;BME280;24092;53.370;-6.588;2022-08-05T07:21:27;101781.85;;;9.30;100.00
38289;BME280;24092;53.370;-6.588;2022-08-05T07:23:54;101782.52;;;8.89;100.00
38289;BME280;24092;53.370;-6.588;2022-08-05T07:26:22;101788.48;;;9.44;100.00
38289;BME280;24092;53.370;-6.588;2022-08-05T07:28:49;101788.38;;;9.66;100.00
38289;BME280;24092;53.370;-6.588;2022-08-05T07:31:17;101785.75;;;9.72;100.00
38289;BME280;24092;53.370;-6.588;2022-08-05T07:33:44;101793.75;;;9.38;100.00
38289;BME280;24092;53.370;-6.588;2022-08-05T07:36:11;101793.07;;;9.44;100.00
38289;BME280;24092;53.370;-6.588;2022-08-05T07:38:38;101792.05;;;9.23;100.00
38289;BME280;24092;53.370;-6.588;2022-08-05T07:41:06;101792.91;;;9.36;100.00
38289;BME280;24092;53.370;-6.588;2022-08-05T07:43:36;101790.51;;;10.36;100.00
38289;BME280;24092;53.370;-6.588;2022-08-05T07:46:04;101792.73;;;9.48;100.00
38289;BME280;24092;53.370;-6.588;2022-08-05T07:48:31;101793.96;;;10.27;100.00
38289;BME280;24092;53.370;-6.588;2022-08-05T07:50:58;101797.32;;;9.19;100.00
38289;BME280;24092;53.370;-6.588;2022-08-05T07:53:25;101804.28;;;9.73;100.00
38289;BME280;24092;53.370;-6.588;2022-08-05T07:55:52;101809.02;;;9.52;100.00
38289;BME280;24092;53.370;-6.588;2022-08-05T07:58:19;101810.46;;;9.64;100.00
38289;BME280;24092;53.370;-6.588;2022-08-05T08:00:46;101814.74;;;10.03;100.00
38289;BME280;24092;53.370;-6.588;2022-08-05T08:03:13;101807.91;;;10.19;100.00
38289;BME280;24092;53.370;-6.588;2022-08-05T08:05:41;101814.70;;;9.97;100.00
38289;BME280;24092;53.370;-6.588;2022-08-05T08:08:09;101816.23;;;10.02;100.00
38289;BME280;24092;53.370;-6.588;2022-08-05T08:10:36;101816.50;;;10.50;100.00
38289;BME280;24092;53.370;-6.588;2022-08-05T08:13:04;101821.63;;;11.12;100.00
38289;BME280;24092;53.370;-6.588;2022-08-05T08:15:32;101819.34;;;11.33;100.00
38289;BME280;24092;53.370;-6.588;2022-08-05T08:17:58;101810.85;;;12.44;100.00
38289;BME280;24092;53.370;-6.588;2022-08-05T08:20:26;101817.88;;;12.03;100.00
38289;BME280;24092;53.370;-6.588;2022-08-05T08:22:55;101816.53;;;12.45;100.00
38289;BME280;24092;53.370;-6.588;2022-08-05T08:25:23;101819.48;;;12.18;100.00
38289;BME280;24092;53.370;-6.588;2022-08-05T08:27:50;101819.04;;;12.64;100.00
38289;BME280;24092;53.370;-6.588;2022-08-05T08:30:17;101822.72;;;12.02;100.00
38289;BME280;24092;53.370;-6.588;2022-08-05T08:32:45;101827.02;;;11.51;100.00
38289;BME280;24092;53.370;-6.588;2022-08-05T08:35:11;101826.61;;;11.14;100.00
38289;BME280;24092;53.370;-6.588;2022-08-05T08:37:38;101827.03;;;11.43;100.00
38289;BME280;24092;53.370;-6.588;2022-08-05T08:40:06;101832.28;;;11.15;100.00
38289;BME280;24092;53.370;-6.588;2022-08-05T08:42:33;101834.52;;;11.27;100.00
38289;BME280;24092;53.370;-6.588;2022-08-05T08:45:03;101837.90;;;11.75;100.00
38289;BME280;24092;53.370;-6.588;2022-08-05T08:47:32;101836.77;;;11.03;100.00
38289;BME280;24092;53.370;-6.588;2022-08-05T08:50:01;101843.49;;;10.73;100.00
38289;BME280;24092;53.370;-6.588;2022-08-05T08:52:31;101846.35;;;10.83;100.00
38289;BME280;24092;53.370;-6.588;2022-08-05T08:54:59;101860.31;;;11.30;100.00
38289;BME280;24092;53.370;-6.588;2022-08-05T08:57:26;101858.10;;;10.82;100.00
38289;BME280;24092;53.370;-6.588;2022-08-05T08:59:53;101858.26;;;12.26;100.00
38289;BME280;24092;53.370;-6.588;2022-08-05T09:02:21;101854.29;;;13.06;100.00
38289;BME280;24092;53.370;-6.588;2022-08-05T09:04:49;101853.91;;;12.51;100.00
38289;BME280;24092;53.370;-6.588;2022-08-05T09:07:16;101855.20;;;12.75;100.00
38289;BME280;24092;53.370;-6.588;2022-08-05T09:09:43;101860.87;;;12.29;100.00
38289;BME280;24092;53.370;-6.588;2022-08-05T09:12:09;101858.33;;;12.36;100.00
38289;BME280;24092;53.370;-6.588;2022-08-05T09:14:37;101865.53;;;12.02;100.00
38289;BME280;24092;53.370;-6.588;2022-08-05T09:17:07;101863.44;;;11.44;100.00
38289;BME280;24092;53.370;-6.588;2022-08-05T09:19:35;101863.33;;;11.45;100.00
38289;BME280;24092;53.370;-6.588;2022-08-05T09:22:02;101864.22;;;11.76;100.00
38289;BME280;24092;53.370;-6.588;2022-08-05T09:24:30;101859.00;;;12.30;100.00
38289;BME280;24092;53.370;-6.588;2022-08-05T09:26:57;101859.71;;;12.51;100.00
38289;BME280;24092;53.370;-6.588;2022-08-05T09:29:37;101861.98;;;13.20;100.00
38289;BME280;24092;53.370;-6.588;2022-08-05T09:32:06;101861.91;;;14.01;100.00
38289;BME280;24092;53.370;-6.588;2022-08-05T09:34:53;101857.38;;;14.02;100.00
38289;BME280;24092;53.370;-6.588;2022-08-05T09:37:22;101856.24;;;13.81;100.00
38289;BME280;24092;53.370;-6.588;2022-08-05T09:39:49;101859.09;;;13.61;100.00
38289;BME280;24092;53.370;-6.588;2022-08-05T09:42:18;101862.69;;;13.01;100.00
38289;BME280;24092;53.370;-6.588;2022-08-05T09:44:48;101868.82;;;12.98;100.00
38289;BME280;24092;53.370;-6.588;2022-08-05T09:47:17;101874.35;;;12.29;100.00
38289;BME280;24092;53.370;-6.588;2022-08-05T09:49:46;101880.86;;;11.85;100.00
38289;BME280;24092;53.370;-6.588;2022-08-05T09:52:20;101870.48;;;13.17;100.00
38289;BME280;24092;53.370;-6.588;2022-08-05T09:54:52;101875.16;;;10.09;100.00
38289;BME280;24092;53.370;-6.588;2022-08-05T09:57:28;101876.30;;;9.83;100.00
38289;BME280;24092;53.370;-6.588;2022-08-05T09:59:57;101877.84;;;10.97;100.00
38289;BME280;24092;53.370;-6.588;2022-08-05T10:02:33;101880.55;;;11.55;100.00
38289;BME280;24092;53.370;-6.588;2022-08-05T10:05:10;101882.21;;;12.19;100.00
38289;BME280;24092;53.370;-6.588;2022-08-05T10:07:49;101881.41;;;12.83;100.00
38289;BME280;24092;53.370;-6.588;2022-08-05T10:10:19;101885.82;;;12.36;100.00
38289;BME280;24092;53.370;-6.588;2022-08-05T10:12:49;101890.81;;;11.73;100.00
38289;BME280;24092;53.370;-6.588;2022-08-05T10:15:20;101890.46;;;12.53;100.00
38289;BME280;24092;53.370;-6.588;2022-08-05T10:18:08;101903.70;;;11.78;100.00
38289;BME280;24092;53.370;-6.588;2022-08-05T10:20:38;101906.91;;;11.29;100.00
38289;BME280;24092;53.370;-6.588;2022-08-05T10:23:06;101905.78;;;10.87;100.00
38289;BME280;24092;53.370;-6.588;2022-08-05T10:25:33;101912.51;;;11.87;100.00
38289;BME280;24092;53.370;-6.588;2022-08-05T10:28:00;101907.21;;;11.26;100.00
38289;BME280;24092;53.370;-6.588;2022-08-05T10:30:28;101908.69;;;10.46;100.00
38289;BME280;24092;53.370;-6.588;2022-08-05T10:32:56;101911.41;;;11.60;100.00
38289;BME280;24092;53.370;-6.588;2022-08-05T10:35:24;101914.69;;;11.10;100.00
38289;BME280;24092;53.370;-6.588;2022-08-05T10:37:52;101914.90;;;11.73;100.00
38289;BME280;24092;53.370;-6.588;2022-08-05T10:40:25;101916.90;;;10.84;100.00
38289;BME280;24092;53.370;-6.588;2022-08-05T10:43:01;101923.42;;;9.31;100.00
38289;BME280;24092;53.370;-6.588;2022-08-05T10:45:32;101925.95;;;8.91;100.00
38289;BME280;24092;53.370;-6.588;2022-08-05T10:48:28;101931.84;;;9.04;100.00
38289;BME280;24092;53.370;-6.588;2022-08-05T10:50:59;101932.94;;;9.51;100.00
38289;BME280;24092;53.370;-6.588;2022-08-05T10:53:44;101938.95;;;8.29;100.00
38289;BME280;24092;53.370;-6.588;2022-08-05T10:56:21;101945.10;;;9.14;100.00
38289;BME280;24092;53.370;-6.588;2022-08-05T10:59:00;101950.31;;;9.46;100.00
38289;BME280;24092;53.370;-6.588;2022-08-05T11:01:29;101953.29;;;8.82;100.00
38289;BME280;24092;53.370;-6.588;2022-08-05T11:04:03;101953.04;;;8.75;100.00
38289;BME280;24092;53.370;-6.588;2022-08-05T11:06:31;101959.52;;;7.19;100.00
38289;BME280;24092;53.370;-6.588;2022-08-05T11:09:37;101959.29;;;9.34;100.00
38289;BME280;24092;53.370;-6.588;2022-08-05T11:12:06;101966.65;;;9.28;100.00
38289;BME280;24092;53.370;-6.588;2022-08-05T11:15:08;101960.80;;;8.47;100.00
38289;BME280;24092;53.370;-6.588;2022-08-05T11:17:37;101960.61;;;9.90;100.00
38289;BME280;24092;53.370;-6.588;2022-08-05T11:20:05;101960.28;;;9.34;100.00
38289;BME280;24092;53.370;-6.588;2022-08-05T11:22:42;101960.38;;;11.38;100.00
38289;BME280;24092;53.370;-6.588;2022-08-05T11:25:42;101965.19;;;11.30;100.00
38289;BME280;24092;53.370;-6.588;2022-08-05T11:28:44;101966.49;;;11.03;100.00
38289;BME280;24092;53.370;-6.588;2022-08-05T11:31:30;101963.40;;;10.09;100.00
38289;BME280;24092;53.370;-6.588;2022-08-05T11:34:00;101967.37;;;11.95;100.00
38289;BME280;24092;53.370;-6.588;2022-08-05T11:36:45;101965.04;;;12.43;100.00
38289;BME280;24092;53.370;-6.588;2022-08-05T11:39:14;101958.48;;;11.25;100.00
38289;BME280;24092;53.370;-6.588;2022-08-05T11:41:49;101959.82;;;11.92;100.00
38289;BME280;24092;53.370;-6.588;2022-08-05T11:44:19;101963.84;;;11.57;100.00
38289;BME280;24092;53.370;-6.588;2022-08-05T11:46:48;101958.90;;;11.21;100.00
38289;BME280;24092;53.370;-6.588;2022-08-05T11:49:17;101960.82;;;9.97;100.00
38289;BME280;24092;53.370;-6.588;2022-08-05T11:51:46;101957.27;;;10.14;100.00
38289;BME280;24092;53.370;-6.588;2022-08-05T11:54:21;101954.68;;;11.01;100.00
38289;BME280;24092;53.370;-6.588;2022-08-05T11:56:50;101950.78;;;11.28;100.00
38289;BME280;24092;53.370;-6.588;2022-08-05T11:59:19;101955.27;;;11.92;100.00
38289;BME280;24092;53.370;-6.588;2022-08-05T12:01:56;101953.17;;;10.60;100.00
38289;BME280;24092;53.370;-6.588;2022-08-05T12:04:25;101958.12;;;12.20;100.00
38289;BME280;24092;53.370;-6.588;2022-08-05T12:06:53;101951.93;;;13.31;100.00
38289;BME280;24092;53.370;-6.588;2022-08-05T12:09:24;101953.68;;;13.41;100.00
38289;BME280;24092;53.370;-6.588;2022-08-05T12:11:51;101951.16;;;13.20;100.00
38289;BME280;24092;53.370;-6.588;2022-08-05T12:14:19;101950.52;;;13.51;100.00
38289;BME280;24092;53.370;-6.588;2022-08-05T12:16:47;101953.58;;;14.19;100.00
38289;BME280;24092;53.370;-6.588;2022-08-05T12:19:15;101954.89;;;13.91;100.00
38289;BME280;24092;53.370;-6.588;2022-08-05T12:21:45;101958.51;;;13.54;100.00
38289;BME280;24092;53.370;-6.588;2022-08-05T12:24:15;101958.82;;;14.80;100.00
38289;BME280;24092;53.370;-6.588;2022-08-05T12:26:44;101962.92;;;13.36;100.00
38289;BME280;24092;53.370;-6.588;2022-08-05T12:29:13;101961.51;;;14.30;100.00
38289;BME280;24092;53.370;-6.588;2022-08-05T12:31:45;101958.56;;;12.94;100.00
38289;BME280;24092;53.370;-6.588;2022-08-05T12:34:14;101965.18;;;11.70;100.00
38289;BME280;24092;53.370;-6.588;2022-08-05T12:36:42;101969.94;;;12.33;100.00
38289;BME280;24092;53.370;-6.588;2022-08-05T12:39:09;101962.85;;;13.29;100.00
38289;BME280;24092;53.370;-6.588;2022-08-05T12:41:38;101973.09;;;12.23;100.00
38289;BME280;24092;53.370;-6.588;2022-08-05T12:44:07;101971.30;;;10.78;100.00
38289;BME280;24092;53.370;-6.588;2022-08-05T12:46:36;101975.63;;;11.59;100.00
38289;BME280;24092;53.370;-6.588;2022-08-05T12:49:06;101977.84;;;11.01;100.00